sensor_id;sensor_type;location;lat;lon;timestamp;pressure;altitude;pressure_sealevel;temperature;humidity
68380;BME280;57711;53.196;19.638;2023-05-22T00:01:26;100698.92;;;15.52;42.63
68380;BME280;57711;53.196;19.638;2023-05-22T00:03:53;100696.86;;;15.50;42.84
68380;BME280;57711;53.196;19.638;2023-05-22T00:06:20;100696.47;;;15.48;42.91
68380;BME280;57711;53.196;19.638;2023-05-22T00:08:49;100698.00;;;15.48;43.00
68380;BME280;57711;53.196;19.638;2023-05-22T00:11:16;100697.95;;;15.47;42.92
68380;BME280;57711;53.196;19.638;2023-05-22T00:13:43;100695.65;;;15.44;42.91
68380;BME280;57711;53.196;19.638;2023-05-22T00:16:10;100695.16;;;15.42;42.91
68380;BME280;57711;53.196;19.638;2023-05-22T00:18:38;100693.45;;;15.39;42.88
68380;BME280;57711;53.196;19.638;2023-05-22T00:21:08;100693.73;;;15.38;42.97
68380;BME280;57711;53.196;19.638;2023-05-22T00:23:36;100690.95;;;15.39;42.94
68380;BME280;57711;53.196;19.638;2023-05-22T00:26:03;100690.54;;;15.37;42.89
68380;BME280;57711;53.196;19.638;2023-05-22T00:28:30;100689.48;;;15.35;42.99
68380;BME280;57711;53.196;19.638;2023-05-22T00:30:57;100691.04;;;15.34;43.21
68380;BME280;57711;53.196;19.638;2023-05-22T00:33:25;100689.63;;;15.34;43.07
68380;BME280;57711;53.196;19.638;2023-05-22T00:35:52;100690.54;;;15.34;43.10
68380;BME280;57711;53.196;19.638;2023-05-22T00:38:33;100692.91;;;15.34;43.20
68380;BME280;57711;53.196;19.638;2023-05-22T00:41:03;100692.27;;;15.33;43.39
68380;BME280;57711;53.196;19.638;2023-05-22T00:43:31;100692.23;;;15.32;43.24
68380;BME280;57711;53.196;19.638;2023-05-22T00:45:58;100689.31;;;15.30;43.30
68380;BME280;57711;53.196;19.638;2023-05-22T00:48:26;100690.29;;;15.27;43.31
68380;BME280;57711;53.196;19.638;2023-05-22T00:50:54;100685.98;;;15.25;43.47
68380;BME280;57711;53.196;19.638;2023-05-22T00:53:24;100683.95;;;15.22;43.28
68380;BME280;57711;53.196;19.638;2023-05-22T00:55:52;100685.17;;;15.19;43.28
68380;BME280;57711;53.196;19.638;2023-05-22T00:58:20;100682.65;;;15.15;43.60
68380;BME280;57711;53.196;19.638;2023-05-22T01:00:48;100678.87;;;15.13;43.59
68380;BME280;57711;53.196;19.638;2023-05-22T01:03:16;100675.23;;;15.10;43.47
68380;BME280;57711;53.196;19.638;2023-05-22T01:05:44;100671.49;;;15.09;43.57
68380;BME280;57711;53.196;19.638;2023-05-22T01:08:12;100672.09;;;15.09;43.76
68380;BME280;57711;53.196;19.638;2023-05-22T01:10:39;100675.25;;;15.08;43.70
68380;BME280;57711;53.196;19.638;2023-05-22T01:24:19;100682.10;;;14.99;43.86
68380;BME280;57711;53.196;19.638;2023-05-22T01:32:19;100676.96;;;14.92;44.09
68380;BME280;57711;53.196;19.638;2023-05-22T01:34:55;100675.21;;;14.89;44.08
68380;BME280;57711;53.196;19.638;2023-05-22T01:37:23;100676.14;;;14.87;44.24
68380;BME280;57711;53.196;19.638;2023-05-22T01:39:51;100678.66;;;14.84;44.00
68380;BME280;57711;53.196;19.638;2023-05-22T01:42:20;100680.95;;;14.81;43.88
68380;BME280;57711;53.196;19.638;2023-05-22T01:44:47;100681.36;;;14.77;44.16
68380;BME280;57711;53.196;19.638;2023-05-22T01:47:15;100680.02;;;14.76;44.07
68380;BME280;57711;53.196;19.638;2023-05-22T01:49:44;100678.26;;;14.76;44.16
68380;BME280;57711;53.196;19.638;2023-05-22T01:52:23;100679.58;;;14.73;44.04
68380;BME280;57711;53.196;19.638;2023-05-22T01:55:10;100683.02;;;14.71;44.27
68380;BME280;57711;53.196;19.638;2023-05-22T01:57:48;100684.67;;;14.71;44.13
68380;BME280;57711;53.196;19.638;2023-05-22T02:00:20;100681.88;;;14.71;44.36
68380;BME280;57711;53.196;19.638;2023-05-22T02:02:56;100682.81;;;14.71;44.36
68380;BME280;57711;53.196;19.638;2023-05-22T02:05:25;100682.63;;;14.71;44.34
68380;BME280;57711;53.196;19.638;2023-05-22T02:07:59;100681.59;;;14.71;44.47
68380;BME280;57711;53.196;19.638;2023-05-22T02:10:28;100675.79;;;14.71;44.37
68380;BME280;57711;53.196;19.638;2023-05-22T02:12:56;100676.05;;;14.70;44.24
68380;BME280;57711;53.196;19.638;2023-05-22T02:15:23;100676.48;;;14.69;44.36
68380;BME280;57711;53.196;19.638;2023-05-22T02:17:51;100677.91;;;14.68;44.51
68380;BME280;57711;53.196;19.638;2023-05-22T02:20:19;100674.13;;;14.67;44.53
68380;BME280;57711;53.196;19.638;2023-05-22T02:22:47;100673.21;;;14.65;44.42
68380;BME280;57711;53.196;19.638;2023-05-22T02:25:14;100676.92;;;14.65;44.51
68380;BME280;57711;53.196;19.638;2023-05-22T02:27:44;100671.92;;;14.64;44.57
68380;BME280;57711;53.196;19.638;2023-05-22T02:30:12;100674.11;;;14.64;44.55
68380;BME280;57711;53.196;19.638;2023-05-22T02:32:41;100671.73;;;14.64;44.61
68380;BME280;57711;53.196;19.638;2023-05-22T02:35:08;100668.11;;;14.64;44.48
68380;BME280;57711;53.196;19.638;2023-05-22T02:37:36;100666.56;;;14.63;44.57
68380;BME280;57711;53.196;19.638;2023-05-22T02:40:04;100668.05;;;14.62;44.67
68380;BME280;57711;53.196;19.638;2023-05-22T02:42:36;100667.39;;;14.62;44.75
68380;BME280;57711;53.196;19.638;2023-05-22T02:45:05;100666.40;;;14.61;44.75
68380;BME280;57711;53.196;19.638;2023-05-22T02:47:32;100663.83;;;14.59;44.78
68380;BME280;57711;53.196;19.638;2023-05-22T02:50:00;100662.10;;;14.58;44.83
68380;BME280;57711;53.196;19.638;2023-05-22T02:52:29;100663.79;;;14.58;44.83
68380;BME280;57711;53.196;19.638;2023-05-22T02:54:56;100662.69;;;14.56;44.89
68380;BME280;57711;53.196;19.638;2023-05-22T02:57:24;100662.12;;;14.56;44.76
68380;BME280;57711;53.196;19.638;2023-05-22T02:59:51;100659.84;;;14.55;44.88
68380;BME280;57711;53.196;19.638;2023-05-22T03:02:20;100659.46;;;14.56;44.90
68380;BME280;57711;53.196;19.638;2023-05-22T03:04:47;100658.58;;;14.55;44.91
68380;BME280;57711;53.196;19.638;2023-05-22T03:07:14;100655.80;;;14.56;44.95
68380;BME280;57711;53.196;19.638;2023-05-22T03:09:41;100657.61;;;14.56;44.92
68380;BME280;57711;53.196;19.638;2023-05-22T03:12:09;100655.94;;;14.56;45.23
68380;BME280;57711;53.196;19.638;2023-05-22T03:14:36;100656.29;;;14.58;45.15
68380;BME280;57711;53.196;19.638;2023-05-22T03:17:03;100655.17;;;14.59;45.15
68380;BME280;57711;53.196;19.638;2023-05-22T03:19:31;100654.95;;;14.59;44.98
68380;BME280;57711;53.196;19.638;2023-05-22T03:21:58;100654.76;;;14.59;45.22
68380;BME280;57711;53.196;19.638;2023-05-22T03:24:25;100656.17;;;14.59;45.19
68380;BME280;57711;53.196;19.638;2023-05-22T03:26:53;100655.23;;;14.60;45.22
68380;BME280;57711;53.196;19.638;2023-05-22T03:29:29;100657.02;;;14.62;45.20
68380;BME280;57711;53.196;19.638;2023-05-22T03:31:57;100652.60;;;14.62;45.38
68380;BME280;57711;53.196;19.638;2023-05-22T03:34:26;100649.80;;;14.63;45.27
68380;BME280;57711;53.196;19.638;2023-05-22T03:36:53;100653.63;;;14.65;45.42
68380;BME280;57711;53.196;19.638;2023-05-22T03:39:23;100650.21;;;14.66;45.21
68380;BME280;57711;53.196;19.638;2023-05-22T03:41:57;100652.73;;;14.68;45.39
68380;BME280;57711;53.196;19.638;2023-05-22T03:44:25;100645.56;;;14.71;45.37
68380;BME280;57711;53.196;19.638;2023-05-22T03:46:53;100648.17;;;14.74;45.36
68380;BME280;57711;53.196;19.638;2023-05-22T03:49:20;100646.59;;;14.75;45.43
68380;BME280;57711;53.196;19.638;2023-05-22T03:51:47;100645.00;;;14.77;45.30
68380;BME280;57711;53.196;19.638;2023-05-22T03:54:14;100645.18;;;14.78;45.64
68380;BME280;57711;53.196;19.638;2023-05-22T03:56:42;100651.15;;;14.81;45.43
68380;BME280;57711;53.196;19.638;2023-05-22T03:59:09;100651.51;;;14.82;45.61
68380;BME280;57711;53.196;19.638;2023-05-22T04:01:38;100649.58;;;14.83;45.38
68380;BME280;57711;53.196;19.638;2023-05-22T04:04:05;100651.46;;;14.84;45.59
68380;BME280;57711;53.196;19.638;2023-05-22T04:06:35;100648.16;;;14.87;45.65
68380;BME280;57711;53.196;19.638;2023-05-22T04:09:12;100645.25;;;14.88;45.61
68380;BME280;57711;53.196;19.638;2023-05-22T04:11:39;100646.15;;;14.90;45.70
68380;BME280;57711;53.196;19.638;2023-05-22T04:14:08;100647.80;;;14.94;45.56
68380;BME280;57711;53.196;19.638;2023-05-22T04:16:35;100649.64;;;14.96;45.73
68380;BME280;57711;53.196;19.638;2023-05-22T04:19:03;100646.42;;;14.99;45.76
68380;BME280;57711;53.196;19.638;2023-05-22T04:21:32;100641.69;;;15.02;45.93
68380;BME280;57711;53.196;19.638;2023-05-22T04:24:01;100638.75;;;15.05;45.72
68380;BME280;57711;53.196;19.638;2023-05-22T04:26:33;100635.55;;;15.10;45.81
68380;BME280;57711;53.196;19.638;2023-05-22T04:29:01;100636.92;;;15.15;45.73
68380;BME280;57711;53.196;19.638;2023-05-22T04:31:28;100630.88;;;15.19;45.74
68380;BME280;57711;53.196;19.638;2023-05-22T04:33:55;100634.84;;;15.23;45.93
68380;BME280;57711;53.196;19.638;2023-05-22T04:36:26;100632.16;;;15.27;45.89
68380;BME280;57711;53.196;19.638;2023-05-22T04:38:54;100630.57;;;15.31;45.86
68380;BME280;57711;53.196;19.638;2023-05-22T04:41:21;100628.17;;;15.34;45.84
68380;BME280;57711;53.196;19.638;2023-05-22T04:43:52;100626.92;;;15.38;45.97
68380;BME280;57711;53.196;19.638;2023-05-22T04:46:20;100626.13;;;15.42;46.09
68380;BME280;57711;53.196;19.638;2023-05-22T04:48:47;100629.45;;;15.45;45.90
68380;BME280;57711;53.196;19.638;2023-05-22T04:51:14;100626.33;;;15.48;46.03
68380;BME280;57711;53.196;19.638;2023-05-22T04:53:42;100623.59;;;15.54;46.16
68380;BME280;57711;53.196;19.638;2023-05-22T04:56:09;100626.45;;;15.58;46.17
68380;BME280;57711;53.196;19.638;2023-05-22T04:58:40;100625.25;;;15.62;45.98
68380;BME280;57711;53.196;19.638;2023-05-22T05:01:07;100628.32;;;15.66;46.16
68380;BME280;57711;53.196;19.638;2023-05-22T05:03:36;100621.89;;;15.70;46.21
68380;BME280;57711;53.196;19.638;2023-05-22T05:06:03;100619.83;;;15.74;46.06
68380;BME280;57711;53.196;19.638;2023-05-22T05:08:30;100622.30;;;15.78;46.21
68380;BME280;57711;53.196;19.638;2023-05-22T05:10:58;100622.94;;;15.83;46.43
68380;BME280;57711;53.196;19.638;2023-05-22T05:13:25;100624.10;;;15.89;46.19
68380;BME280;57711;53.196;19.638;2023-05-22T05:15:53;100626.15;;;15.96;46.24
68380;BME280;57711;53.196;19.638;2023-05-22T05:18:21;100625.63;;;16.02;46.24
68380;BME280;57711;53.196;19.638;2023-05-22T05:20:49;100625.68;;;16.11;46.37
68380;BME280;57711;53.196;19.638;2023-05-22T05:23:16;100621.41;;;16.20;46.45
68380;BME280;57711;53.196;19.638;2023-05-22T05:25:44;100624.66;;;16.29;46.19
68380;BME280;57711;53.196;19.638;2023-05-22T05:28:11;100623.96;;;16.38;46.34
68380;BME280;57711;53.196;19.638;2023-05-22T05:30:40;100619.96;;;16.49;46.26
68380;BME280;57711;53.196;19.638;2023-05-22T05:33:14;100623.14;;;16.59;46.62
68380;BME280;57711;53.196;19.638;2023-05-22T05:36:02;100620.50;;;16.71;46.53
68380;BME280;57711;53.196;19.638;2023-05-22T05:38:30;100626.01;;;16.82;46.44
68380;BME280;57711;53.196;19.638;2023-05-22T05:40:58;100621.48;;;16.93;46.43
68380;BME280;57711;53.196;19.638;2023-05-22T05:43:26;100621.85;;;17.05;46.46
68380;BME280;57711;53.196;19.638;2023-05-22T05:45:58;100622.05;;;17.20;46.65
68380;BME280;57711;53.196;19.638;2023-05-22T05:48:25;100618.10;;;17.34;46.59
68380;BME280;57711;53.196;19.638;2023-05-22T05:50:52;100623.60;;;17.48;46.38
68380;BME280;57711;53.196;19.638;2023-05-22T05:53:20;100618.64;;;17.61;46.38
68380;BME280;57711;53.196;19.638;2023-05-22T05:55:53;100620.46;;;17.74;46.60
68380;BME280;57711;53.196;19.638;2023-05-22T05:58:21;100617.39;;;17.89;46.42
68380;BME280;57711;53.196;19.638;2023-05-22T06:01:03;100616.32;;;18.04;46.46
68380;BME280;57711;53.196;19.638;2023-05-22T06:03:31;100617.51;;;18.18;46.48
68380;BME280;57711;53.196;19.638;2023-05-22T06:06:10;100616.45;;;18.32;46.40
68380;BME280;57711;53.196;19.638;2023-05-22T06:09:02;100613.63;;;18.45;46.24
68380;BME280;57711;53.196;19.638;2023-05-22T06:11:34;100613.65;;;18.54;46.27
68380;BME280;57711;53.196;19.638;2023-05-22T06:14:03;100613.31;;;18.65;46.15
68380;BME280;57711;53.196;19.638;2023-05-22T06:16:30;100611.92;;;18.78;46.17
68380;BME280;57711;53.196;19.638;2023-05-22T06:18:58;100609.63;;;18.92;46.31
68380;BME280;57711;53.196;19.638;2023-05-22T06:21:26;100607.73;;;19.06;46.21
68380;BME280;57711;53.196;19.638;2023-05-22T06:23:53;100604.79;;;19.20;46.16
68380;BME280;57711;53.196;19.638;2023-05-22T06:26:21;100603.84;;;19.34;46.16
68380;BME280;57711;53.196;19.638;2023-05-22T06:28:51;100602.58;;;19.50;46.31
68380;BME280;57711;53.196;19.638;2023-05-22T06:31:21;100601.41;;;19.67;46.34
68380;BME280;57711;53.196;19.638;2023-05-22T06:33:49;100599.44;;;19.84;46.22
68380;BME280;57711;53.196;19.638;2023-05-22T06:36:18;100597.29;;;20.00;46.18
68380;BME280;57711;53.196;19.638;2023-05-22T06:38:46;100597.96;;;20.16;46.07
68380;BME280;57711;53.196;19.638;2023-05-22T06:41:35;100595.77;;;20.32;45.93
68380;BME280;57711;53.196;19.638;2023-05-22T06:44:03;100597.09;;;20.47;46.02
68380;BME280;57711;53.196;19.638;2023-05-22T06:46:36;100592.42;;;20.61;45.96
68380;BME280;57711;53.196;19.638;2023-05-22T06:49:04;100593.33;;;20.72;45.96
68380;BME280;57711;53.196;19.638;2023-05-22T06:51:35;100590.59;;;20.85;45.73
68380;BME280;57711;53.196;19.638;2023-05-22T06:54:06;100586.52;;;20.99;45.72
68380;BME280;57711;53.196;19.638;2023-05-22T06:56:35;100587.20;;;21.13;45.69
68380;BME280;57711;53.196;19.638;2023-05-22T06:59:05;100583.08;;;21.27;45.62
68380;BME280;57711;53.196;19.638;2023-05-22T07:01:52;100581.25;;;21.42;45.54
68380;BME280;57711;53.196;19.638;2023-05-22T07:04:27;100579.89;;;21.56;45.56
68380;BME280;57711;53.196;19.638;2023-05-22T07:06:57;100578.59;;;21.66;45.52
68380;BME280;57711;53.196;19.638;2023-05-22T07:09:24;100577.00;;;21.76;45.44
68380;BME280;57711;53.196;19.638;2023-05-22T07:11:52;100573.67;;;21.87;45.33
68380;BME280;57711;53.196;19.638;2023-05-22T07:14:19;100573.44;;;21.99;45.40
68380;BME280;57711;53.196;19.638;2023-05-22T07:16:47;100572.72;;;22.07;45.24
68380;BME280;57711;53.196;19.638;2023-05-22T07:19:18;100572.66;;;22.12;45.17
68380;BME280;57711;53.196;19.638;2023-05-22T07:21:46;100571.86;;;22.16;45.12
68380;BME280;57711;53.196;19.638;2023-05-22T07:24:15;100571.88;;;22.19;45.12
68380;BME280;57711;53.196;19.638;2023-05-22T07:26:43;100567.86;;;22.24;45.00
68380;BME280;57711;53.196;19.638;2023-05-22T07:29:12;100569.54;;;22.30;44.98
68380;BME280;57711;53.196;19.638;2023-05-22T07:31:40;100564.61;;;22.32;44.93
68380;BME280;57711;53.196;19.638;2023-05-22T07:34:09;100566.10;;;22.34;44.94
68380;BME280;57711;53.196;19.638;2023-05-22T07:36:36;100566.17;;;22.34;44.85
68380;BME280;57711;53.196;19.638;2023-05-22T07:39:05;100565.05;;;22.36;44.74
68380;BME280;57711;53.196;19.638;2023-05-22T07:41:35;100561.69;;;22.38;44.70
68380;BME280;57711;53.196;19.638;2023-05-22T07:44:04;100563.06;;;22.40;44.58
68380;BME280;57711;53.196;19.638;2023-05-22T07:46:34;100564.02;;;22.42;44.53
68380;BME280;57711;53.196;19.638;2023-05-22T07:49:08;100560.07;;;22.47;44.54
68380;BME280;57711;53.196;19.638;2023-05-22T07:51:38;100561.69;;;22.51;44.54
68380;BME280;57711;53.196;19.638;2023-05-22T07:54:07;100558.29;;;22.53;44.35
68380;BME280;57711;53.196;19.638;2023-05-22T07:56:34;100558.64;;;22.55;44.38
68380;BME280;57711;53.196;19.638;2023-05-22T07:59:06;100559.73;;;22.55;44.34
68380;BME280;57711;53.196;19.638;2023-05-22T08:01:33;100561.11;;;22.54;44.31
68380;BME280;57711;53.196;19.638;2023-05-22T08:04:03;100562.08;;;22.55;44.27
68380;BME280;57711;53.196;19.638;2023-05-22T08:06:32;100565.48;;;22.53;43.96
68380;BME280;57711;53.196;19.638;2023-05-22T08:09:01;100560.52;;;22.45;43.94
68380;BME280;57711;53.196;19.638;2023-05-22T08:11:28;100561.63;;;22.43;43.86
68380;BME280;57711;53.196;19.638;2023-05-22T08:13:56;100561.77;;;22.45;44.00
68380;BME280;57711;53.196;19.638;2023-05-22T08:16:23;100558.92;;;22.51;44.00
68380;BME280;57711;53.196;19.638;2023-05-22T08:18:50;100554.78;;;22.61;43.91
68380;BME280;57711;53.196;19.638;2023-05-22T08:21:17;100554.25;;;22.72;43.81
68380;BME280;57711;53.196;19.638;2023-05-22T08:23:45;100555.54;;;22.83;43.78
68380;BME280;57711;53.196;19.638;2023-05-22T08:26:13;100550.65;;;22.89;43.63
68380;BME280;57711;53.196;19.638;2023-05-22T08:28:40;100547.05;;;22.95;43.58
68380;BME280;57711;53.196;19.638;2023-05-22T08:31:10;100553.34;;;23.07;43.66
68380;BME280;57711;53.196;19.638;2023-05-22T08:33:38;100546.90;;;23.19;43.61
68380;BME280;57711;53.196;19.638;2023-05-22T08:36:05;100547.16;;;23.29;43.50
68380;BME280;57711;53.196;19.638;2023-05-22T08:38:33;100554.73;;;23.41;43.34
68380;BME280;57711;53.196;19.638;2023-05-22T08:41:00;100553.33;;;23.54;43.33
68380;BME280;57711;53.196;19.638;2023-05-22T08:43:28;100552.87;;;23.66;43.25
68380;BME280;57711;53.196;19.638;2023-05-22T08:45:59;100552.04;;;23.79;43.22
68380;BME280;57711;53.196;19.638;2023-05-22T08:48:30;100549.71;;;23.93;43.03
68380;BME280;57711;53.196;19.638;2023-05-22T08:51:02;100549.75;;;24.04;43.05
68380;BME280;57711;53.196;19.638;2023-05-22T08:53:39;100553.34;;;24.11;42.93
68380;BME280;57711;53.196;19.638;2023-05-22T08:56:09;100551.70;;;24.19;42.92
68380;BME280;57711;53.196;19.638;2023-05-22T08:58:37;100549.05;;;24.32;42.69
68380;BME280;57711;53.196;19.638;2023-05-22T09:01:04;100546.87;;;24.42;42.66
68380;BME280;57711;53.196;19.638;2023-05-22T09:03:35;100544.60;;;24.47;42.58
68380;BME280;57711;53.196;19.638;2023-05-22T09:06:03;100543.52;;;24.52;42.62
68380;BME280;57711;53.196;19.638;2023-05-22T09:08:30;100536.02;;;24.63;42.66
68380;BME280;57711;53.196;19.638;2023-05-22T09:10:57;100541.17;;;24.68;42.44
68380;BME280;57711;53.196;19.638;2023-05-22T09:13:29;100533.05;;;24.62;42.44
68380;BME280;57711;53.196;19.638;2023-05-22T09:15:58;100532.86;;;24.62;42.38
68380;BME280;57711;53.196;19.638;2023-05-22T09:18:27;100530.80;;;24.65;42.26
68380;BME280;57711;53.196;19.638;2023-05-22T09:20:59;100526.59;;;24.63;42.29
68380;BME280;57711;53.196;19.638;2023-05-22T09:23:28;100526.34;;;24.67;42.24
68380;BME280;57711;53.196;19.638;2023-05-22T09:25:57;100526.06;;;24.77;42.24
68380;BME280;57711;53.196;19.638;2023-05-22T09:28:25;100526.43;;;24.91;42.23
68380;BME280;57711;53.196;19.638;2023-05-22T09:30:53;100526.14;;;24.95;41.91
68380;BME280;57711;53.196;19.638;2023-05-22T09:33:22;100526.11;;;24.83;41.59
68380;BME280;57711;53.196;19.638;2023-05-22T09:35:51;100526.08;;;24.63;41.55
68380;BME280;57711;53.196;19.638;2023-05-22T09:38:20;100524.79;;;24.37;41.45
68380;BME280;57711;53.196;19.638;2023-05-22T09:40:52;100527.49;;;24.08;41.44
68380;BME280;57711;53.196;19.638;2023-05-22T09:43:21;100525.52;;;23.89;41.46
68380;BME280;57711;53.196;19.638;2023-05-22T09:46:02;100521.23;;;23.72;41.30
68380;BME280;57711;53.196;19.638;2023-05-22T09:48:35;100517.41;;;23.53;41.17
68380;BME280;57711;53.196;19.638;2023-05-22T09:51:03;100515.48;;;23.34;41.13
68380;BME280;57711;53.196;19.638;2023-05-22T09:53:31;100518.82;;;23.18;41.13
68380;BME280;57711;53.196;19.638;2023-05-22T09:55:59;100517.38;;;23.07;41.02
68380;BME280;57711;53.196;19.638;2023-05-22T09:58:29;100509.29;;;23.06;40.95
68380;BME280;57711;53.196;19.638;2023-05-22T10:00:57;100510.02;;;23.18;41.08
68380;BME280;57711;53.196;19.638;2023-05-22T10:03:26;100507.80;;;23.39;41.16
68380;BME280;57711;53.196;19.638;2023-05-22T10:05:54;100502.17;;;23.62;40.95
68380;BME280;57711;53.196;19.638;2023-05-22T10:08:27;100499.02;;;23.79;40.88
68380;BME280;57711;53.196;19.638;2023-05-22T10:10:54;100500.61;;;23.94;40.95
68380;BME280;57711;53.196;19.638;2023-05-22T10:13:24;100497.23;;;24.14;40.95
68380;BME280;57711;53.196;19.638;2023-05-22T10:15:52;100496.89;;;24.30;40.81
68380;BME280;57711;53.196;19.638;2023-05-22T10:18:20;100490.62;;;24.38;40.66
68380;BME280;57711;53.196;19.638;2023-05-22T10:20:48;100491.16;;;24.39;40.52
68380;BME280;57711;53.196;19.638;2023-05-22T10:23:17;100487.11;;;24.45;40.63
68380;BME280;57711;53.196;19.638;2023-05-22T10:25:45;100482.19;;;24.59;40.70
68380;BME280;57711;53.196;19.638;2023-05-22T10:28:20;100484.34;;;24.64;40.42
68380;BME280;57711;53.196;19.638;2023-05-22T10:30:59;100481.67;;;24.52;40.14
68380;BME280;57711;53.196;19.638;2023-05-22T10:33:53;100479.86;;;24.33;40.13
68380;BME280;57711;53.196;19.638;2023-05-22T10:39:35;100481.30;;;24.13;40.11
68380;BME280;57711;53.196;19.638;2023-05-22T10:42:11;100476.56;;;24.04;40.14
68380;BME280;57711;53.196;19.638;2023-05-22T10:44:39;100474.92;;;23.94;40.07
68380;BME280;57711;53.196;19.638;2023-05-22T10:47:08;100475.54;;;23.81;40.03
68380;BME280;57711;53.196;19.638;2023-05-22T10:49:41;100470.48;;;23.65;39.95
68380;BME280;57711;53.196;19.638;2023-05-22T10:52:09;100468.97;;;23.55;39.89
68380;BME280;57711;53.196;19.638;2023-05-22T10:54:46;100465.08;;;23.44;39.88
68380;BME280;57711;53.196;19.638;2023-05-22T10:57:23;100460.73;;;23.31;39.96
68380;BME280;57711;53.196;19.638;2023-05-22T10:59:50;100458.44;;;23.25;39.77
68380;BME280;57711;53.196;19.638;2023-05-22T11:02:23;100455.77;;;23.26;39.78
68380;BME280;57711;53.196;19.638;2023-05-22T11:04:51;100453.20;;;23.26;39.71
68380;BME280;57711;53.196;19.638;2023-05-22T11:07:19;100450.88;;;23.20;39.58
68380;BME280;57711;53.196;19.638;2023-05-22T11:09:46;100442.71;;;23.13;39.66
68380;BME280;57711;53.196;19.638;2023-05-22T11:12:27;100445.30;;;23.10;39.54
68380;BME280;57711;53.196;19.638;2023-05-22T11:15:08;100442.67;;;23.06;39.55
68380;BME280;57711;53.196;19.638;2023-05-22T11:20:19;100439.48;;;22.94;39.45
68380;BME280;57711;53.196;19.638;2023-05-22T11:23:00;100437.64;;;22.88;39.45
68380;BME280;57711;53.196;19.638;2023-05-22T11:25:28;100432.71;;;22.80;39.38
68380;BME280;57711;53.196;19.638;2023-05-22T11:27:56;100431.83;;;22.75;39.46
68380;BME280;57711;53.196;19.638;2023-05-22T11:30:25;100429.15;;;22.68;39.30
68380;BME280;57711;53.196;19.638;2023-05-22T11:32:53;100422.80;;;22.64;39.38
68380;BME280;57711;53.196;19.638;2023-05-22T11:35:20;100423.27;;;22.62;39.37
68380;BME280;57711;53.196;19.638;2023-05-22T11:37:49;100421.31;;;22.59;39.14
68380;BME280;57711;53.196;19.638;2023-05-22T11:40:21;100421.19;;;22.55;39.12
68380;BME280;57711;53.196;19.638;2023-05-22T11:42:51;100418.97;;;22.54;39.11
68380;BME280;57711;53.196;19.638;2023-05-22T11:45:19;100416.38;;;22.71;39.28
68380;BME280;57711;53.196;19.638;2023-05-22T11:47:47;100412.02;;;22.99;39.33
68380;BME280;57711;53.196;19.638;2023-05-22T11:50:15;100409.01;;;23.29;38.98
68380;BME280;57711;53.196;19.638;2023-05-22T11:52:56;100410.73;;;23.50;38.99
68380;BME280;57711;53.196;19.638;2023-05-22T11:55:25;100410.16;;;23.69;38.99
68380;BME280;57711;53.196;19.638;2023-05-22T11:57:54;100404.30;;;23.91;38.86
68380;BME280;57711;53.196;19.638;2023-05-22T12:00:22;100404.16;;;24.13;38.90
68380;BME280;57711;53.196;19.638;2023-05-22T12:02:49;100400.90;;;24.36;38.89
68380;BME280;57711;53.196;19.638;2023-05-22T12:05:19;100397.21;;;24.57;38.74
68380;BME280;57711;53.196;19.638;2023-05-22T12:07:47;100393.98;;;24.71;38.61
68380;BME280;57711;53.196;19.638;2023-05-22T12:10:14;100393.28;;;24.69;38.47
68380;BME280;57711;53.196;19.638;2023-05-22T12:12:42;100393.08;;;24.64;38.50
68380;BME280;57711;53.196;19.638;2023-05-22T12:15:10;100395.73;;;24.68;38.59
68380;BME280;57711;53.196;19.638;2023-05-22T12:17:38;100397.20;;;24.74;38.54
68380;BME280;57711;53.196;19.638;2023-05-22T12:20:06;100397.55;;;24.74;38.46
68380;BME280;57711;53.196;19.638;2023-05-22T12:22:39;100396.08;;;24.66;38.30
68380;BME280;57711;53.196;19.638;2023-05-22T12:25:12;100395.77;;;24.58;38.22
68380;BME280;57711;53.196;19.638;2023-05-22T12:27:42;100391.95;;;24.59;38.23
68380;BME280;57711;53.196;19.638;2023-05-22T12:30:12;100392.06;;;24.68;38.27
68380;BME280;57711;53.196;19.638;2023-05-22T12:32:39;100391.34;;;24.76;38.21
68380;BME280;57711;53.196;19.638;2023-05-22T12:35:14;100393.86;;;24.85;38.30
68380;BME280;57711;53.196;19.638;2023-05-22T12:37:47;100386.08;;;24.96;38.20
68380;BME280;57711;53.196;19.638;2023-05-22T12:40:15;100388.02;;;25.01;37.99
68380;BME280;57711;53.196;19.638;2023-05-22T12:42:42;100386.02;;;25.06;38.04
68380;BME280;57711;53.196;19.638;2023-05-22T12:45:10;100385.15;;;25.10;37.92
68380;BME280;57711;53.196;19.638;2023-05-22T12:47:39;100381.78;;;25.11;37.84
68380;BME280;57711;53.196;19.638;2023-05-22T12:50:07;100379.65;;;25.06;37.78
68380;BME280;57711;53.196;19.638;2023-05-22T12:52:34;100379.00;;;24.95;37.66
68380;BME280;57711;53.196;19.638;2023-05-22T12:55:02;100373.48;;;24.94;37.80
68380;BME280;57711;53.196;19.638;2023-05-22T12:57:29;100371.48;;;24.98;37.68
68380;BME280;57711;53.196;19.638;2023-05-22T12:59:56;100373.73;;;24.95;37.62
68380;BME280;57711;53.196;19.638;2023-05-22T13:02:23;100370.65;;;24.89;37.55
68380;BME280;57711;53.196;19.638;2023-05-22T13:04:51;100373.26;;;24.80;37.52
68380;BME280;57711;53.196;19.638;2023-05-22T13:07:18;100368.23;;;24.70;37.50
68380;BME280;57711;53.196;19.638;2023-05-22T13:09:45;100366.11;;;24.68;37.63
68380;BME280;57711;53.196;19.638;2023-05-22T13:12:12;100365.13;;;24.68;37.26
68380;BME280;57711;53.196;19.638;2023-05-22T13:14:39;100362.11;;;24.63;37.27